Time;durP1;ratioP1;P1;durP2;ratioP2;P2;SDS_P1;SDS_P2;PMS_P1;PMS_P2;Temp;Humidity;BMP_temperature;BMP_pressure;BME280_temperature;BME280_humidity;BME280_pressure;Samples;Min_cycle;Max_cycle;Signal;HPM_P1;HPM_P2
2022/07/15 00:02:07;;;;;;;3.22;2.60;;;20.40;69.10;;;;;;5045017;28;20094;-34
2022/07/15 00:04:33;;;;;;;4.50;2.63;;;20.20;75.80;;;;;;5048232;28;20028;-33
2022/07/15 00:06:59;;;;;;;3.13;2.38;;;19.90;79.50;;;;;;5046381;28;20041;-33
2022/07/15 00:10:13;;;;;;;4.00;2.85;;;19.80;75.40;;;;;;5046803;28;20029;-33
2022/07/15 00:12:11;;;;;;;2.53;2.33;;;19.80;77.00;;;;;;5043591;28;20036;-33
2022/07/15 00:14:37;;;;;;;3.95;2.72;;;19.70;74.50;;;;;;5043039;28;20607;-33
2022/07/15 00:17:04;;;;;;;4.60;2.38;;;19.70;74.70;;;;;;5041765;28;20029;-33
2022/07/15 00:19:30;;;;;;;6.68;2.70;;;19.60;75.70;;;;;;5043407;28;20041;-34
2022/07/15 00:21:56;;;;;;;2.65;2.45;;;19.60;76.60;;;;;;5047229;28;20044;-34
2022/07/15 00:24:22;;;;;;;3.13;2.65;;;19.50;75.50;;;;;;5048811;28;20504;-33
2022/07/15 00:26:48;;;;;;;2.85;2.55;;;19.50;76.00;;;;;;5043395;28;20025;-33
2022/07/15 00:29:13;;;;;;;5.25;2.90;;;19.50;74.50;;;;;;5046238;28;20024;-34
2022/07/15 00:31:39;;;;;;;3.72;2.67;;;19.50;74.30;;;;;;5043044;28;20048;-34
2022/07/15 00:34:04;;;;;;;3.38;2.80;;;19.40;72.80;;;;;;5048925;28;20099;-33
2022/07/15 00:36:30;;;;;;;3.65;2.83;;;19.60;72.40;;;;;;5051543;28;20021;-34
2022/07/15 00:38:57;;;;;;;3.17;2.42;;;19.60;73.10;;;;;;5045265;28;20385;-37
2022/07/15 00:41:22;;;;;;;3.58;2.60;;;19.60;73.70;;;;;;5047433;28;20398;-36
2022/07/15 00:43:48;;;;;;;6.65;3.10;;;19.60;72.60;;;;;;5046707;28;20033;-35
2022/07/15 00:46:18;;;;;;;3.03;2.50;;;19.60;71.40;;;;;;5042682;28;20043;-33
2022/07/15 00:48:44;;;;;;;3.67;2.67;;;19.50;71.60;;;;;;5041699;28;20115;-34
2022/07/15 00:51:10;;;;;;;3.92;2.90;;;19.50;68.80;;;;;;5046106;28;20127;-35
2022/07/15 00:53:37;;;;;;;4.28;2.40;;;19.50;70.50;;;;;;5046895;28;20506;-32
2022/07/15 00:56:06;;;;;;;2.72;2.28;;;19.50;69.30;;;;;;5047276;28;20055;-33
2022/07/15 00:58:36;;;;;;;3.88;2.53;;;19.50;68.30;;;;;;5045933;28;20031;-34
2022/07/15 01:01:03;;;;;;;2.83;2.38;;;19.50;67.80;;;;;;5051047;28;20561;-33
2022/07/15 01:03:31;;;;;;;3.72;2.40;;;19.50;68.20;;;;;;5051179;28;21138;-34
2022/07/15 01:05:57;;;;;;;4.18;2.78;;;19.50;66.60;;;;;;5049953;28;20033;-33
2022/07/15 01:08:23;;;;;;;4.43;2.67;;;19.40;67.40;;;;;;5051315;28;20031;-33
2022/07/15 01:10:50;;;;;;;3.47;2.60;;;19.40;67.30;;;;;;5048242;28;20441;-33
2022/07/15 01:13:18;;;;;;;2.75;2.33;;;19.40;67.30;;;;;;5049090;28;20059;-34
2022/07/15 01:15:44;;;;;;;2.58;2.38;;;19.30;66.70;;;;;;5045356;28;20056;-33
2022/07/15 01:18:09;;;;;;;4.15;2.60;;;19.30;65.80;;;;;;5043932;28;20105;-33
2022/07/15 01:20:39;;;;;;;4.63;2.10;;;19.20;65.10;;;;;;5045117;28;20037;-33
2022/07/15 01:23:05;;;;;;;2.08;1.83;;;19.00;62.40;;;;;;5046856;28;20454;-33
2022/07/15 01:25:31;;;;;;;2.85;2.17;;;18.80;62.80;;;;;;5048963;28;20033;-36
2022/07/15 01:27:56;;;;;;;3.60;1.98;;;18.90;62.40;;;;;;5048402;28;20371;-36
2022/07/15 01:30:22;;;;;;;3.67;1.77;;;18.70;61.90;;;;;;5048699;28;20120;-33
2022/07/15 01:32:48;;;;;;;4.75;1.83;;;18.60;61.50;;;;;;5050501;28;20037;-34
2022/07/15 01:35:14;;;;;;;3.72;1.88;;;18.50;62.00;;;;;;5047703;28;20380;-34
2022/07/15 01:37:39;;;;;;;3.97;1.50;;;18.40;59.80;;;;;;5049721;28;20082;-35
2022/07/15 01:40:07;;;;;;;2.33;1.60;;;18.30;59.90;;;;;;5050026;28;20076;-34
2022/07/15 01:42:33;;;;;;;1.85;1.58;;;18.30;59.70;;;;;;5047082;28;20033;-33
2022/07/15 01:44:59;;;;;;;3.17;1.80;;;18.20;59.50;;;;;;5049804;28;20055;-33
2022/07/15 01:47:25;;;;;;;3.30;2.10;;;18.10;60.50;;;;;;5047975;28;20036;-34
2022/07/15 01:49:51;;;;;;;3.08;1.50;;;18.00;60.00;;;;;;5044729;28;20028;-37
2022/07/15 01:52:17;;;;;;;2.60;1.70;;;18.00;60.10;;;;;;5045423;28;20025;-35
2022/07/15 01:54:43;;;;;;;6.15;1.70;;;17.90;60.60;;;;;;5047825;28;20039;-33
2022/07/15 01:57:09;;;;;;;3.50;1.50;;;17.80;60.60;;;;;;5047838;28;20772;-33
2022/07/15 01:59:35;;;;;;;3.05;1.48;;;17.80;60.40;;;;;;5047068;28;20478;-34
2022/07/15 02:02:00;;;;;;;2.83;1.40;;;17.70;61.50;;;;;;5048317;28;20102;-33
2022/07/15 02:04:27;;;;;;;3.35;1.73;;;17.70;60.60;;;;;;5047133;28;20051;-33
2022/07/15 02:06:52;;;;;;;2.80;1.50;;;17.60;59.80;;;;;;5048186;28;20025;-34
2022/07/15 02:09:18;;;;;;;4.68;1.38;;;17.70;59.00;;;;;;5049587;28;20043;-36
2022/07/15 02:11:44;;;;;;;1.52;1.42;;;17.70;58.80;;;;;;5044906;28;20025;-33
2022/07/15 02:14:09;;;;;;;2.53;1.27;;;17.60;60.10;;;;;;5049140;28;20037;-34
2022/07/15 02:16:35;;;;;;;2.40;1.40;;;17.60;60.30;;;;;;5046121;28;20094;-34
2022/07/15 02:19:01;;;;;;;2.58;1.55;;;17.60;60.30;;;;;;5047074;28;20540;-33
2022/07/15 02:21:27;;;;;;;2.88;1.40;;;17.50;61.20;;;;;;5042540;28;20048;-33
2022/07/15 02:23:54;;;;;;;3.35;1.45;;;17.50;61.70;;;;;;5045052;28;20036;-33
2022/07/15 02:26:20;;;;;;;2.00;1.50;;;17.50;61.40;;;;;;5045542;28;20363;-32
2022/07/15 02:28:46;;;;;;;4.88;1.40;;;17.50;61.20;;;;;;5045259;28;20032;-32
2022/07/15 02:31:12;;;;;;;1.83;1.50;;;17.40;61.60;;;;;;5045375;28;20390;-33
2022/07/15 02:33:38;;;;;;;2.15;1.50;;;17.40;61.30;;;;;;5045565;28;20987;-34
2022/07/15 02:36:04;;;;;;;1.50;1.40;;;17.50;61.10;;;;;;5048025;28;20496;-34
2022/07/15 02:38:30;;;;;;;2.85;1.55;;;17.50;60.60;;;;;;5049421;28;20033;-33
2022/07/15 02:40:56;;;;;;;1.38;1.20;;;17.40;60.70;;;;;;5045957;28;20539;-33
2022/07/15 02:43:21;;;;;;;3.10;1.35;;;17.40;61.20;;;;;;5045011;28;20057;-33
2022/07/15 02:45:47;;;;;;;2.40;1.90;;;17.40;61.30;;;;;;5047329;28;20071;-35
2022/07/15 02:48:15;;;;;;;2.55;1.60;;;17.30;62.20;;;;;;5049721;28;20112;-33
2022/07/15 02:50:41;;;;;;;3.83;1.37;;;17.30;62.90;;;;;;5043341;28;20084;-33
2022/07/15 02:53:06;;;;;;;3.65;1.48;;;17.20;63.60;;;;;;5047195;28;20383;-33
2022/07/15 02:55:32;;;;;;;1.92;1.50;;;17.20;63.90;;;;;;5047909;28;20048;-33
2022/07/15 02:57:58;;;;;;;2.47;1.50;;;17.20;64.10;;;;;;5045349;28;20049;-34
2022/07/15 03:00:23;;;;;;;3.45;1.40;;;17.20;64.80;;;;;;5048726;28;20037;-33
2022/07/15 03:02:50;;;;;;;3.65;1.60;;;17.10;64.90;;;;;;5043300;28;20385;-35
2022/07/15 03:05:17;;;;;;;3.03;1.55;;;17.10;64.90;;;;;;5044889;28;20032;-33
2022/07/15 03:07:44;;;;;;;3.67;1.52;;;17.10;64.10;;;;;;5049480;28;20036;-34
2022/07/15 03:10:10;;;;;;;2.88;1.80;;;17.00;65.50;;;;;;5048107;28;20033;-33
2022/07/15 03:12:36;;;;;;;3.47;1.90;;;17.00;66.30;;;;;;5048665;28;20040;-34
2022/07/15 03:15:03;;;;;;;3.38;1.58;;;16.90;67.10;;;;;;5043555;28;20043;-34
2022/07/15 03:17:29;;;;;;;1.75;1.63;;;16.80;67.70;;;;;;5045094;28;20025;-36
2022/07/15 03:19:55;;;;;;;3.25;1.75;;;16.80;67.60;;;;;;5046831;28;20721;-33
2022/07/15 03:22:22;;;;;;;4.53;1.77;;;16.80;67.70;;;;;;5044730;28;20045;-33
2022/07/15 03:24:48;;;;;;;5.75;1.58;;;16.70;67.60;;;;;;5044848;28;20021;-33
2022/07/15 03:27:14;;;;;;;3.85;1.88;;;16.70;68.30;;;;;;5048349;28;20025;-33
2022/07/15 03:29:40;;;;;;;3.20;1.63;;;16.70;68.00;;;;;;5043351;28;20413;-33
2022/07/15 03:32:06;;;;;;;4.43;1.73;;;16.70;69.10;;;;;;5044612;28;20060;-33
2022/07/15 03:34:32;;;;;;;2.58;1.80;;;16.60;69.10;;;;;;5045826;28;20029;-33
2022/07/15 03:36:59;;;;;;;4.32;1.60;;;16.60;69.90;;;;;;5046181;28;20035;-33
2022/07/15 03:39:26;;;;;;;5.38;2.08;;;16.70;70.00;;;;;;5044287;28;20021;-33
2022/07/15 03:41:51;;;;;;;2.10;1.80;;;16.60;70.60;;;;;;5046492;28;20027;-33
2022/07/15 03:44:17;;;;;;;2.42;1.80;;;16.50;71.40;;;;;;5048750;28;20032;-36
2022/07/15 03:46:45;;;;;;;2.40;1.50;;;16.60;71.50;;;;;;5043798;28;20498;-35
2022/07/15 03:49:11;;;;;;;4.10;1.85;;;16.60;71.30;;;;;;5046967;28;20159;-34
2022/07/15 03:51:37;;;;;;;1.85;1.50;;;16.60;71.40;;;;;;5047335;28;20120;-34
2022/07/15 03:54:03;;;;;;;3.83;1.80;;;16.60;72.10;;;;;;5046589;28;20130;-33
2022/07/15 03:56:30;;;;;;;3.63;2.08;;;16.60;72.40;;;;;;5043716;28;20029;-33
2022/07/15 03:58:56;;;;;;;2.65;1.50;;;16.50;72.50;;;;;;5046434;28;20028;-34
2022/07/15 04:01:22;;;;;;;3.38;1.95;;;16.60;72.50;;;;;;5041358;28;20051;-34
2022/07/15 04:03:49;;;;;;;4.03;1.63;;;16.60;72.70;;;;;;5042560;28;20047;-34
2022/07/15 04:06:16;;;;;;;3.97;1.65;;;16.60;72.40;;;;;;5044957;28;20499;-33
2022/07/15 04:08:43;;;;;;;3.80;1.88;;;16.70;71.90;;;;;;5042004;28;20029;-34
2022/07/15 04:11:09;;;;;;;3.33;1.73;;;16.80;71.10;;;;;;5045877;28;20477;-33
2022/07/15 04:13:34;;;;;;;2.63;1.90;;;16.90;70.40;;;;;;5037106;28;20500;-34
2022/07/15 04:16:00;;;;;;;3.33;1.80;;;16.90;69.30;;;;;;5043880;28;20528;-34
2022/07/15 04:18:26;;;;;;;4.82;1.88;;;17.00;68.50;;;;;;5045686;28;20033;-34
2022/07/15 04:20:52;;;;;;;2.65;1.63;;;17.10;67.70;;;;;;5046578;28;20040;-33
2022/07/15 04:23:17;;;;;;;2.08;1.55;;;17.20;67.30;;;;;;5044577;28;20049;-33
2022/07/15 04:25:43;;;;;;;2.70;1.60;;;17.30;66.90;;;;;;5047397;28;20040;-33
2022/07/15 04:28:09;;;;;;;2.60;1.90;;;17.30;66.90;;;;;;5042908;28;20064;-33
2022/07/15 04:30:35;;;;;;;1.73;1.63;;;17.40;66.50;;;;;;5044895;28;20643;-33
2022/07/15 04:33:00;;;;;;;2.42;1.52;;;17.40;69.70;;;;;;5047506;28;20390;-32
2022/07/15 04:35:26;;;;;;;2.45;1.70;;;17.40;69.10;;;;;;5047231;28;20025;-33
2022/07/15 04:37:52;;;;;;;2.33;1.70;;;17.30;69.90;;;;;;5046030;28;20067;-35
2022/07/15 04:40:18;;;;;;;2.60;1.83;;;17.30;70.20;;;;;;5042745;28;20537;-33
2022/07/15 04:42:44;;;;;;;3.22;1.92;;;17.20;72.70;;;;;;5045310;28;20037;-32
2022/07/15 04:45:10;;;;;;;1.98;1.75;;;17.10;72.80;;;;;;5045969;28;20036;-34
2022/07/15 04:47:36;;;;;;;3.85;2.00;;;16.90;75.10;;;;;;5045305;28;20028;-35
2022/07/15 04:52:48;;;;;;;3.53;2.13;;;16.90;75.60;;;;;;5044286;28;20433;-33
2022/07/15 04:55:14;;;;;;;3.33;2.00;;;17.00;77.40;;;;;;5046296;28;20497;-33
2022/07/15 04:57:41;;;;;;;3.47;2.03;;;16.90;80.90;;;;;;5045408;28;20033;-33
2022/07/15 05:00:08;;;;;;;5.15;2.15;;;16.90;83.60;;;;;;5041997;28;20036;-33
2022/07/15 05:02:34;;;;;;;2.75;1.70;;;16.90;86.20;;;;;;5045048;28;20068;-34
2022/07/15 05:04:59;;;;;;;3.63;2.20;;;16.90;86.20;;;;;;5044150;28;20141;-34
2022/07/15 05:07:25;;;;;;;2.63;2.40;;;16.90;88.20;;;;;;5044592;28;20063;-33
2022/07/15 05:09:51;;;;;;;4.82;2.83;;;16.90;87.40;;;;;;5046488;28;20374;-33
2022/07/15 05:12:16;;;;;;;4.03;2.20;;;17.00;86.90;;;;;;5041860;28;20125;-32
2022/07/15 05:14:42;;;;;;;5.53;2.00;;;17.10;87.60;;;;;;5043470;28;20060;-35
2022/07/15 05:17:08;;;;;;;3.17;2.10;;;17.30;87.30;;;;;;5047207;28;20029;-33
2022/07/15 05:19:34;;;;;;;6.65;2.63;;;17.40;87.60;;;;;;5045566;28;20108;-33
2022/07/15 05:22:00;;;;;;;2.65;2.45;;;17.40;84.80;;;;;;5045171;28;20546;-35
2022/07/15 05:24:26;;;;;;;3.85;2.53;;;17.50;85.80;;;;;;5046460;28;20032;-33
2022/07/15 05:26:52;;;;;;;5.25;2.65;;;17.50;86.80;;;;;;5045281;28;20037;-33
2022/07/15 05:29:17;;;;;;;10.25;2.63;;;17.60;85.10;;;;;;5046064;28;20075;-34
2022/07/15 05:31:43;;;;;;;4.90;2.70;;;17.70;83.60;;;;;;5045721;28;20048;-35
2022/07/15 05:34:09;;;;;;;4.85;2.50;;;17.70;83.00;;;;;;5042770;28;20100;-33
2022/07/15 05:36:35;;;;;;;2.42;2.22;;;17.80;81.80;;;;;;5042242;28;20020;-33
2022/07/15 05:39:01;;;;;;;3.47;2.22;;;17.90;81.90;;;;;;5044912;28;20025;-33
2022/07/15 05:41:26;;;;;;;3.25;2.40;;;18.00;82.10;;;;;;5043277;28;20033;-33
2022/07/15 05:43:52;;;;;;;3.63;2.25;;;18.00;83.80;;;;;;5046823;28;20029;-33
2022/07/15 05:46:17;;;;;;;3.20;2.25;;;18.10;79.00;;;;;;5046493;28;20803;-33
2022/07/15 05:48:43;;;;;;;5.00;2.40;;;18.30;83.10;;;;;;5048670;28;20162;-33
2022/07/15 05:51:09;;;;;;;4.75;2.20;;;18.40;79.10;;;;;;5042035;28;20090;-34
2022/07/15 05:53:34;;;;;;;3.15;2.17;;;18.40;73.80;;;;;;5049957;28;20068;-35
2022/07/15 05:56:00;;;;;;;5.53;2.33;;;18.50;71.90;;;;;;5049646;28;20033;-34
2022/07/15 05:58:26;;;;;;;5.68;2.30;;;18.60;77.50;;;;;;5047607;28;20151;-34
2022/07/15 06:00:52;;;;;;;3.58;2.20;;;18.70;71.40;;;;;;5048615;28;20036;-33
2022/07/15 06:03:18;;;;;;;4.75;1.92;;;18.80;64.30;;;;;;5050914;28;20044;-33
2022/07/15 06:05:44;;;;;;;2.20;2.00;;;18.80;63.90;;;;;;5052183;28;20021;-33
2022/07/15 06:08:10;;;;;;;6.43;2.40;;;18.90;64.60;;;;;;5050352;28;20407;-33
2022/07/15 06:10:36;;;;;;;6.60;2.50;;;19.00;70.30;;;;;;5053000;28;20037;-34
2022/07/15 06:13:03;;;;;;;6.18;1.92;;;19.00;68.60;;;;;;5047199;28;20037;-33
2022/07/15 06:15:29;;;;;;;2.13;1.92;;;19.00;62.40;;;;;;5075345;28;20163;-35
2022/07/15 06:17:55;;;;;;;4.20;1.80;;;19.10;60.80;;;;;;5049431;28;20509;-33
2022/07/15 06:20:21;;;;;;;2.22;1.80;;;19.20;60.00;;;;;;5050347;28;20025;-32
2022/07/15 06:22:46;;;;;;;3.45;2.40;;;19.20;64.00;;;;;;5051971;28;20595;-33
2022/07/15 06:25:12;;;;;;;4.53;2.30;;;19.30;66.30;;;;;;5052547;28;20032;-35
2022/07/15 06:27:39;;;;;;;2.25;1.83;;;19.30;64.30;;;;;;5048790;28;20021;-34
2022/07/15 06:30:05;;;;;;;4.13;2.63;;;19.40;62.70;;;;;;5049321;28;20033;-33
2022/07/15 06:32:31;;;;;;;4.85;2.22;;;19.50;65.20;;;;;;5049583;28;20041;-33
2022/07/15 06:34:57;;;;;;;2.85;1.90;;;19.50;63.50;;;;;;5047556;28;20573;-33
2022/07/15 06:37:22;;;;;;;3.75;1.95;;;19.50;62.90;;;;;;5051456;28;20033;-33
2022/07/15 06:39:48;;;;;;;4.53;2.10;;;19.40;61.30;;;;;;5046565;28;20480;-33
2022/07/15 06:42:14;;;;;;;1.95;1.85;;;19.50;61.30;;;;;;5048265;28;20490;-33
2022/07/15 06:44:40;;;;;;;6.78;2.10;;;19.60;63.90;;;;;;5049790;28;20024;-33
2022/07/15 06:47:06;;;;;;;2.55;1.73;;;19.70;62.10;;;;;;5071916;28;20041;-36
2022/07/15 06:49:34;;;;;;;2.17;1.50;;;19.80;60.30;;;;;;5046689;28;20040;-33
2022/07/15 06:52:00;;;;;;;4.07;1.90;;;19.80;59.40;;;;;;5048703;28;20396;-33
2022/07/15 06:54:25;;;;;;;2.70;2.20;;;19.90;57.90;;;;;;5046307;28;20452;-33
2022/07/15 06:56:51;;;;;;;4.25;1.85;;;20.10;57.50;;;;;;5045705;28;20029;-33
2022/07/15 06:59:17;;;;;;;5.60;1.90;;;20.10;60.50;;;;;;5044109;28;20398;-35
2022/07/15 07:01:45;;;;;;;4.82;2.03;;;20.10;58.10;;;;;;5046776;28;20028;-33
2022/07/15 07:04:11;;;;;;;3.70;1.80;;;20.10;55.50;;;;;;5045430;28;20029;-33
2022/07/15 07:06:37;;;;;;;7.70;2.10;;;20.10;55.60;;;;;;5042955;28;20554;-34
2022/07/15 07:09:03;;;;;;;3.92;1.70;;;20.20;55.70;;;;;;5048231;28;20037;-33
2022/07/15 07:11:28;;;;;;;4.03;1.63;;;20.20;55.30;;;;;;5045649;28;20056;-33
2022/07/15 07:13:54;;;;;;;4.20;1.52;;;20.40;52.40;;;;;;5045817;28;20021;-34
2022/07/15 07:16:20;;;;;;;5.63;1.65;;;20.40;51.90;;;;;;5044889;28;20102;-33
2022/07/15 07:18:47;;;;;;;3.90;1.50;;;20.50;51.10;;;;;;5042246;28;20449;-33
2022/07/15 07:21:14;;;;;;;1.52;1.42;;;20.50;51.40;;;;;;5042990;28;20071;-33
2022/07/15 07:23:39;;;;;;;5.63;1.70;;;20.60;49.90;;;;;;5041451;28;20482;-34
2022/07/15 07:26:06;;;;;;;2.70;1.55;;;20.80;49.10;;;;;;5044788;28;20037;-34
2022/07/15 07:28:32;;;;;;;3.40;1.60;;;20.80;50.40;;;;;;5043526;28;20029;-33
2022/07/15 07:30:59;;;;;;;2.65;1.60;;;21.00;50.90;;;;;;5041494;28;20120;-34
2022/07/15 07:33:25;;;;;;;4.03;1.92;;;21.00;51.40;;;;;;5043895;28;20076;-33
2022/07/15 07:35:51;;;;;;;5.47;2.35;;;21.20;49.70;;;;;;5049922;28;20025;-34
2022/07/15 07:38:17;;;;;;;2.50;1.42;;;21.30;52.00;;;;;;5043608;28;20078;-35
2022/07/15 07:40:44;;;;;;;2.38;1.85;;;21.50;48.60;;;;;;5045699;28;20033;-32
2022/07/15 07:43:09;;;;;;;26.45;3.25;;;21.40;50.10;;;;;;5039237;28;20060;-33
2022/07/15 07:45:35;;;;;;;2.92;1.75;;;21.50;51.40;;;;;;5040897;28;20104;-33
2022/07/15 07:48:01;;;;;;;37.85;3.78;;;21.50;51.20;;;;;;5043444;28;20033;-32
2022/07/15 07:50:27;;;;;;;7.95;1.80;;;21.30;50.60;;;;;;5041866;28;20449;-33
2022/07/15 07:52:54;;;;;;;5.03;1.60;;;21.20;48.50;;;;;;5043932;28;20425;-32
2022/07/15 07:55:19;;;;;;;3.80;1.60;;;21.60;48.90;;;;;;5047407;28;20036;-34
2022/07/15 07:57:49;;;;;;;2.95;1.55;;;21.70;50.10;;;;;;5038316;28;20545;-33
2022/07/15 08:00:16;;;;;;;1.98;1.50;;;21.70;48.70;;;;;;5046220;28;20036;-33
2022/07/15 08:02:42;;;;;;;3.58;1.80;;;21.80;49.30;;;;;;5045201;28;20025;-34
2022/07/15 08:05:08;;;;;;;3.00;1.65;;;22.10;51.60;;;;;;5041357;28;20039;-33
2022/07/15 08:07:35;;;;;;;3.35;1.88;;;22.10;49.00;;;;;;5041328;28;20033;-33
2022/07/15 08:10:02;;;;;;;7.03;2.17;;;21.80;45.80;;;;;;5047418;28;20025;-33
2022/07/15 08:12:28;;;;;;;2.97;2.22;;;22.10;47.00;;;;;;5041418;28;20029;-33
2022/07/15 08:14:54;;;;;;;3.83;1.90;;;22.60;46.60;;;;;;5047544;28;20434;-33
2022/07/15 08:17:21;;;;;;;4.47;1.83;;;22.50;44.40;;;;;;5047422;28;20516;-33
2022/07/15 08:19:47;;;;;;;2.92;1.50;;;22.40;44.00;;;;;;5041791;28;20076;-34
2022/07/15 08:22:13;;;;;;;8.18;1.70;;;22.50;44.80;;;;;;5043825;28;20053;-33
2022/07/15 08:24:39;;;;;;;1.52;1.40;;;22.50;45.10;;;;;;5042035;28;20048;-32
2022/07/15 08:27:05;;;;;;;3.75;1.70;;;22.50;44.20;;;;;;5037424;28;20112;-33
2022/07/15 08:29:30;;;;;;;2.67;1.90;;;22.60;44.40;;;;;;5042625;28;20036;-33
2022/07/15 08:31:56;;;;;;;1.65;1.55;;;23.00;43.30;;;;;;5044218;28;20041;-33
2022/07/15 08:34:21;;;;;;;3.83;1.80;;;22.90;43.10;;;;;;5040258;28;20040;-33
2022/07/15 08:36:47;;;;;;;7.80;2.72;;;23.30;43.90;;;;;;5043183;28;20020;-34
2022/07/15 08:39:13;;;;;;;2.05;1.40;;;23.70;44.20;;;;;;5047055;28;20108;-33
2022/07/15 08:41:39;;;;;;;3.08;1.48;;;24.30;40.00;;;;;;5042590;28;20036;-35
2022/07/15 08:44:05;;;;;;;4.03;1.90;;;24.30;40.00;;;;;;5043121;28;20041;-33
2022/07/15 08:46:33;;;;;;;1.73;1.50;;;24.10;41.50;;;;;;5045437;28;20473;-33
2022/07/15 08:49:02;;;;;;;;;;;24.50;40.50;;;;;;5040123;28;20029;-34
2022/07/15 08:51:30;;;;;;;4.95;1.60;;;24.30;41.00;;;;;;5046029;28;20362;-34
2022/07/15 08:53:56;;;;;;;3.50;1.70;;;24.00;40.60;;;;;;5045654;28;20146;-33
2022/07/15 08:56:22;;;;;;;6.18;1.50;;;23.90;41.50;;;;;;5042623;28;20136;-33
2022/07/15 08:58:48;;;;;;;2.75;1.70;;;23.70;42.00;;;;;;5040917;28;20020;-34
2022/07/15 09:01:14;;;;;;;2.45;1.70;;;23.60;41.70;;;;;;5028687;28;20041;-34
2022/07/15 09:03:41;;;;;;;3.58;1.65;;;23.70;42.60;;;;;;5032626;28;20159;-34
2022/07/15 09:06:06;;;;;;;2.00;1.60;;;23.70;42.70;;;;;;5040500;28;20032;-33
2022/07/15 09:08:34;;;;;;;12.23;2.00;;;24.10;40.90;;;;;;5041436;28;20104;-35
2022/07/15 09:11:00;;;;;;;3.38;1.73;;;23.70;40.30;;;;;;5042830;28;20045;-34
2022/07/15 09:13:31;;;;;;;3.20;1.60;;;23.60;40.00;;;;;;5047115;28;20040;-33
2022/07/15 09:16:04;;;;;;;3.75;2.08;;;23.60;38.80;;;;;;5044576;28;20048;-33
2022/07/15 09:18:33;;;;;;;3.42;2.08;;;23.90;40.20;;;;;;5045783;28;20037;-33
2022/07/15 09:20:59;;;;;;;3.40;1.80;;;23.70;40.70;;;;;;5043238;28;20033;-34
2022/07/15 09:23:31;;;;;;;3.92;1.63;;;24.10;39.90;;;;;;5045170;28;20129;-33
2022/07/15 09:26:29;;;;;;;3.72;1.50;;;24.20;42.00;;;;;;5047471;28;20075;-35
2022/07/15 09:28:56;;;;;;;4.05;2.05;;;24.50;39.90;;;;;;5044923;28;20024;-33
2022/07/15 09:34:21;;;;;;;4.85;1.77;;;23.90;40.20;;;;;;5001349;28;20059;-33
2022/07/15 09:36:54;;;;;;;6.57;1.90;;;23.90;39.70;;;;;;5046313;28;20037;-35
2022/07/15 09:39:24;;;;;;;43.58;4.25;;;24.00;40.40;;;;;;5048098;28;20025;-35
2022/07/15 09:41:50;;;;;;;4.18;1.98;;;24.10;41.00;;;;;;5047409;28;20029;-33
2022/07/15 09:44:18;;;;;;;3.20;1.80;;;24.20;39.30;;;;;;5043405;28;20025;-33
2022/07/15 09:46:58;;;;;;;2.25;1.60;;;24.40;41.70;;;;;;5045906;28;20396;-34
2022/07/15 09:49:30;;;;;;;2.97;1.80;;;25.00;40.20;;;;;;5046713;28;20064;-33
2022/07/15 09:52:14;;;;;;;4.70;1.77;;;25.40;38.20;;;;;;4958827;28;20460;-33
2022/07/15 09:54:47;;;;;;;3.35;1.92;;;25.80;37.90;;;;;;5043071;28;20044;-35
2022/07/15 09:57:17;;;;;;;3.10;1.70;;;25.50;37.20;;;;;;5049769;28;20038;-35
2022/07/15 09:59:47;;;;;;;3.88;2.10;;;25.10;37.90;;;;;;5048528;28;20024;-37
2022/07/15 10:02:14;;;;;;;2.30;2.10;;;25.10;36.30;;;;;;5047614;28;20032;-34
2022/07/15 10:04:40;;;;;;;4.05;2.10;;;24.70;36.90;;;;;;5049691;28;20516;-34
2022/07/15 10:07:06;;;;;;;2.55;1.95;;;24.60;37.50;;;;;;5050949;28;20032;-33
2022/07/15 10:09:34;;;;;;;4.80;2.00;;;24.70;36.90;;;;;;5047717;28;20029;-34
2022/07/15 10:12:13;;;;;;;5.32;3.05;;;24.70;37.80;;;;;;5047428;28;20068;-33
2022/07/15 10:15:03;;;;;;;3.38;1.80;;;24.90;38.10;;;;;;5046560;28;20617;-33
2022/07/15 10:17:47;;;;;;;3.20;2.10;;;25.40;37.00;;;;;;5044799;28;20017;-35
2022/07/15 10:20:24;;;;;;;2.63;2.33;;;25.60;36.90;;;;;;5048111;28;20070;-34
2022/07/15 10:23:05;;;;;;;3.72;2.08;;;25.70;35.50;;;;;;5045985;28;20045;-33
2022/07/15 10:25:45;;;;;;;2.90;2.00;;;25.40;34.50;;;;;;5049086;28;20021;-34
2022/07/15 10:28:52;;;;;;;3.88;2.00;;;25.90;35.30;;;;;;5048224;28;20389;-34
2022/07/15 10:31:23;;;;;;;3.33;2.10;;;26.10;35.90;;;;;;5046927;28;20033;-34
2022/07/15 10:34:03;;;;;;;2.20;1.95;;;25.50;36.90;;;;;;5047668;28;20024;-36
2022/07/15 10:36:49;;;;;;;4.82;2.28;;;25.40;36.40;;;;;;5048172;28;20048;-33
2022/07/15 10:39:20;;;;;;;3.42;2.08;;;25.10;37.50;;;;;;5057848;28;20029;-33
2022/07/15 10:41:58;;;;;;;3.63;2.00;;;25.10;39.50;;;;;;5045901;28;20112;-33
2022/07/15 10:44:31;;;;;;;3.05;2.13;;;25.30;37.60;;;;;;5049295;28;20394;-33
2022/07/15 10:47:11;;;;;;;2.47;2.22;;;25.00;36.60;;;;;;5043394;28;20025;-34
2022/07/15 10:49:38;;;;;;;4.10;2.33;;;25.10;36.10;;;;;;5047611;28;20055;-33
2022/07/15 10:52:23;;;;;;;3.27;1.77;;;25.10;37.10;;;;;;5052615;28;20041;-34
2022/07/15 10:54:57;;;;;;;2.20;1.88;;;25.30;37.90;;;;;;5048883;28;20291;-33
2022/07/15 10:57:50;;;;;;;4.07;2.00;;;25.00;36.00;;;;;;5048538;28;20533;-33
2022/07/15 11:00:33;;;;;;;5.95;2.00;;;25.40;37.00;;;;;;5049770;28;20036;-34
2022/07/15 11:03:02;;;;;;;2.42;2.22;;;25.80;36.90;;;;;;5053157;28;20056;-34
2022/07/15 11:05:28;;;;;;;2.67;1.90;;;25.50;36.50;;;;;;5046844;28;20112;-35
2022/07/15 11:07:54;;;;;;;2.80;2.50;;;25.10;37.10;;;;;;5049245;28;20120;-34
2022/07/15 11:10:21;;;;;;;11.43;2.50;;;25.00;36.00;;;;;;5048998;28;20050;-34
2022/07/15 11:12:50;;;;;;;5.35;2.47;;;24.90;37.00;;;;;;5047515;28;20482;-33
2022/07/15 11:15:19;;;;;;;4.00;2.33;;;25.00;39.20;;;;;;5073981;28;20034;-34
2022/07/15 11:17:50;;;;;;;3.67;2.25;;;25.30;38.40;;;;;;5044029;28;20025;-34
2022/07/15 11:20:17;;;;;;;3.78;2.20;;;25.40;35.90;;;;;;5045127;28;20386;-34
2022/07/15 11:22:52;;;;;;;4.38;2.50;;;25.40;38.30;;;;;;5046066;28;20119;-35
2022/07/15 11:25:31;;;;;;;2.97;2.20;;;25.40;37.20;;;;;;5046727;28;20071;-34
2022/07/15 11:28:14;;;;;;;3.17;2.30;;;25.60;37.10;;;;;;5052381;28;20469;-33
2022/07/15 11:30:41;;;;;;;2.30;2.10;;;25.70;37.70;;;;;;5049570;28;20044;-34
2022/07/15 11:33:10;;;;;;;3.58;2.20;;;25.10;36.90;;;;;;5039122;28;20029;-36
2022/07/15 11:35:52;;;;;;;3.40;2.13;;;25.10;36.50;;;;;;5045625;28;20029;-35
2022/07/15 11:38:22;;;;;;;2.83;2.10;;;24.60;36.40;;;;;;5046597;28;20031;-33
2022/07/15 11:46:26;;;;;;;24.25;3.08;;;25.20;36.90;;;;;;5046647;28;20043;-34
2022/07/15 11:48:52;;;;;;;3.13;2.10;;;25.00;36.40;;;;;;5043452;28;20037;-33
2022/07/15 11:51:25;;;;;;;4.18;2.38;;;24.70;37.40;;;;;;5049975;28;20390;-33
2022/07/15 11:53:51;;;;;;;3.47;2.40;;;24.90;40.60;;;;;;5049408;28;20158;-33
2022/07/15 11:56:16;;;;;;;5.18;2.08;;;25.10;39.80;;;;;;5043581;28;21384;-34
2022/07/15 11:58:44;;;;;;;7.03;2.67;;;25.40;39.50;;;;;;5046155;28;20027;-34
2022/07/15 12:01:13;;;;;;;3.88;2.33;;;25.40;37.30;;;;;;5050312;28;20032;-34
2022/07/15 12:03:50;;;;;;;2.80;2.40;;;25.50;36.90;;;;;;5075329;28;20128;-33
2022/07/15 12:06:19;;;;;;;2.72;2.22;;;25.40;37.80;;;;;;5047731;28;20029;-36
2022/07/15 12:08:48;;;;;;;2.97;2.30;;;25.50;36.00;;;;;;5050636;28;20119;-34
2022/07/15 12:11:32;;;;;;;3.70;2.63;;;25.30;35.70;;;;;;5047108;28;20039;-35
2022/07/15 12:14:05;;;;;;;2.92;2.25;;;25.30;37.40;;;;;;5049048;28;20105;-35
2022/07/15 12:16:34;;;;;;;6.22;2.20;;;25.40;37.90;;;;;;5043194;28;20017;-34
2022/07/15 12:19:17;;;;;;;2.60;2.40;;;25.40;36.90;;;;;;5049605;28;20097;-33
2022/07/15 12:21:46;;;;;;;2.92;2.30;;;25.30;37.90;;;;;;5052802;28;20077;-33
2022/07/15 12:24:15;;;;;;;2.60;2.10;;;25.10;36.20;;;;;;5046476;28;20359;-34
2022/07/15 12:27:01;;;;;;;3.78;2.25;;;25.10;37.00;;;;;;5044530;28;20119;-34
2022/07/15 12:29:30;;;;;;;2.40;2.20;;;25.10;36.70;;;;;;5078388;28;20102;-34
2022/07/15 12:31:58;;;;;;;2.53;2.00;;;25.10;36.30;;;;;;5045345;28;20037;-34
2022/07/15 12:34:46;;;;;;;4.55;2.30;;;25.00;37.30;;;;;;5045863;28;20041;-34
2022/07/15 12:37:12;;;;;;;;;;;24.90;37.70;;;;;;5044884;28;20024;-33
2022/07/15 12:40:20;;;;;;;2.92;2.50;;;24.70;36.40;;;;;;5048968;28;20344;-33
2022/07/15 12:42:48;;;;;;;2.97;2.35;;;24.70;36.00;;;;;;5038727;28;20048;-33
2022/07/15 12:45:22;;;;;;;4.97;2.15;;;24.70;37.90;;;;;;5045189;28;20047;-33
2022/07/15 12:48:04;;;;;;;2.50;2.30;;;24.80;35.60;;;;;;5051826;28;20036;-34
2022/07/15 12:50:50;;;;;;;2.50;2.15;;;24.90;36.10;;;;;;5042644;28;20029;-33
2022/07/15 12:53:18;;;;;;;4.28;2.15;;;25.00;36.90;;;;;;5037051;28;20556;-35
2022/07/15 12:55:46;;;;;;;5.70;2.08;;;25.00;35.00;;;;;;5051457;28;20024;-33
2022/07/15 12:58:17;;;;;;;5.75;2.58;;;24.90;35.80;;;;;;5056571;28;20068;-34
2022/07/15 13:00:44;;;;;;;3.72;2.40;;;25.00;35.10;;;;;;5054693;28;20037;-33
2022/07/15 13:03:22;;;;;;;4.85;2.22;;;25.00;34.90;;;;;;5052174;28;20033;-33
2022/07/15 13:05:49;;;;;;;3.88;2.30;;;25.10;37.30;;;;;;5055758;28;20106;-34